sensor_id;sensor_type;location;lat;lon;timestamp;P1;durP1;ratioP1;P2;durP2;ratioP2
16737;SDS011;17906;47.684;10.806;2023-03-14T00:00:56;2.30;;;1.03;;
16737;SDS011;17906;47.684;10.806;2023-03-14T00:03:22;2.87;;;1.10;;
16737;SDS011;17906;47.684;10.806;2023-03-14T00:05:49;1.43;;;0.80;;
16737;SDS011;17906;47.684;10.806;2023-03-14T00:08:16;1.70;;;1.10;;
16737;SDS011;17906;47.684;10.806;2023-03-14T00:10:42;2.50;;;1.30;;
16737;SDS011;17906;47.684;10.806;2023-03-14T00:13:09;2.23;;;1.10;;
16737;SDS011;17906;47.684;10.806;2023-03-14T00:15:37;2.17;;;0.83;;
16737;SDS011;17906;47.684;10.806;2023-03-14T00:18:03;1.13;;;0.77;;
16737;SDS011;17906;47.684;10.806;2023-03-14T00:20:30;2.57;;;1.50;;
16737;SDS011;17906;47.684;10.806;2023-03-14T00:22:57;2.17;;;0.93;;
16737;SDS011;17906;47.684;10.806;2023-03-14T00:25:23;1.57;;;0.90;;
16737;SDS011;17906;47.684;10.806;2023-03-14T00:27:50;1.90;;;1.10;;
16737;SDS011;17906;47.684;10.806;2023-03-14T00:30:17;1.87;;;0.93;;
16737;SDS011;17906;47.684;10.806;2023-03-14T00:32:45;2.43;;;1.00;;
16737;SDS011;17906;47.684;10.806;2023-03-14T00:35:12;3.00;;;1.20;;
16737;SDS011;17906;47.684;10.806;2023-03-14T00:37:38;2.80;;;1.40;;
16737;SDS011;17906;47.684;10.806;2023-03-14T00:40:05;3.33;;;1.00;;
16737;SDS011;17906;47.684;10.806;2023-03-14T00:42:33;3.67;;;1.20;;
16737;SDS011;17906;47.684;10.806;2023-03-14T00:45:00;4.30;;;1.33;;
16737;SDS011;17906;47.684;10.806;2023-03-14T00:47:26;3.57;;;1.00;;
16737;SDS011;17906;47.684;10.806;2023-03-14T00:49:54;1.90;;;0.93;;
16737;SDS011;17906;47.684;10.806;2023-03-14T00:52:21;3.30;;;1.40;;
16737;SDS011;17906;47.684;10.806;2023-03-14T00:54:47;2.27;;;0.90;;
16737;SDS011;17906;47.684;10.806;2023-03-14T00:57:14;1.97;;;0.90;;
16737;SDS011;17906;47.684;10.806;2023-03-14T00:59:40;2.57;;;1.17;;
16737;SDS011;17906;47.684;10.806;2023-03-14T01:02:07;1.77;;;1.17;;
16737;SDS011;17906;47.684;10.806;2023-03-14T01:04:33;1.40;;;0.90;;
16737;SDS011;17906;47.684;10.806;2023-03-14T01:07:03;2.73;;;1.13;;
16737;SDS011;17906;47.684;10.806;2023-03-14T01:09:29;2.37;;;1.00;;
16737;SDS011;17906;47.684;10.806;2023-03-14T01:11:56;2.17;;;1.00;;
16737;SDS011;17906;47.684;10.806;2023-03-14T01:14:23;3.73;;;1.03;;
16737;SDS011;17906;47.684;10.806;2023-03-14T01:16:49;1.10;;;0.60;;
16737;SDS011;17906;47.684;10.806;2023-03-14T01:19:15;4.13;;;0.90;;
16737;SDS011;17906;47.684;10.806;2023-03-14T01:21:42;1.17;;;0.60;;
16737;SDS011;17906;47.684;10.806;2023-03-14T01:24:11;0.80;;;0.50;;
16737;SDS011;17906;47.684;10.806;2023-03-14T01:26:37;0.23;;;0.23;;
16737;SDS011;17906;47.684;10.806;2023-03-14T01:29:04;3.03;;;0.20;;
16737;SDS011;17906;47.684;10.806;2023-03-14T01:31:31;0.93;;;0.30;;
16737;SDS011;17906;47.684;10.806;2023-03-14T01:33:57;0.60;;;0.30;;
16737;SDS011;17906;47.684;10.806;2023-03-14T01:36:24;0.20;;;0.20;;
16737;SDS011;17906;47.684;10.806;2023-03-14T01:38:50;2.27;;;0.90;;
16737;SDS011;17906;47.684;10.806;2023-03-14T01:41:19;1.63;;;0.33;;
16737;SDS011;17906;47.684;10.806;2023-03-14T01:43:47;0.83;;;0.20;;
16737;SDS011;17906;47.684;10.806;2023-03-14T01:46:19;0.27;;;0.10;;
16737;SDS011;17906;47.684;10.806;2023-03-14T01:48:51;0.57;;;0.10;;
16737;SDS011;17906;47.684;10.806;2023-03-14T01:51:22;0.10;;;0.10;;
16737;SDS011;17906;47.684;10.806;2023-03-14T01:53:53;0.50;;;0.10;;
16737;SDS011;17906;47.684;10.806;2023-03-14T01:56:26;0.30;;;0.00;;
16737;SDS011;17906;47.684;10.806;2023-03-14T01:58:53;0.80;;;0.20;;
16737;SDS011;17906;47.684;10.806;2023-03-14T02:01:21;0.37;;;0.20;;
16737;SDS011;17906;47.684;10.806;2023-03-14T02:03:52;0.00;;;0.00;;
16737;SDS011;17906;47.684;10.806;2023-03-14T02:06:21;0.53;;;0.10;;
16737;SDS011;17906;47.684;10.806;2023-03-14T02:08:51;0.30;;;0.10;;
16737;SDS011;17906;47.684;10.806;2023-03-14T02:11:18;0.43;;;0.10;;
16737;SDS011;17906;47.684;10.806;2023-03-14T02:13:46;0.67;;;0.10;;
16737;SDS011;17906;47.684;10.806;2023-03-14T02:16:14;2.67;;;0.10;;
16737;SDS011;17906;47.684;10.806;2023-03-14T02:18:40;1.30;;;0.10;;
16737;SDS011;17906;47.684;10.806;2023-03-14T02:21:09;0.23;;;0.00;;
16737;SDS011;17906;47.684;10.806;2023-03-14T02:23:43;0.10;;;0.00;;
16737;SDS011;17906;47.684;10.806;2023-03-14T02:26:19;0.10;;;0.00;;
16737;SDS011;17906;47.684;10.806;2023-03-14T02:28:51;0.10;;;0.00;;
16737;SDS011;17906;47.684;10.806;2023-03-14T02:31:19;0.40;;;0.00;;
16737;SDS011;17906;47.684;10.806;2023-03-14T02:33:47;0.07;;;0.07;;
16737;SDS011;17906;47.684;10.806;2023-03-14T02:36:14;0.70;;;0.00;;
16737;SDS011;17906;47.684;10.806;2023-03-14T02:38:41;0.10;;;0.07;;
16737;SDS011;17906;47.684;10.806;2023-03-14T02:41:13;0.10;;;0.00;;
16737;SDS011;17906;47.684;10.806;2023-03-14T02:43:40;2.23;;;0.20;;
16737;SDS011;17906;47.684;10.806;2023-03-14T02:46:08;1.37;;;0.07;;
16737;SDS011;17906;47.684;10.806;2023-03-14T02:48:38;1.50;;;0.03;;
16737;SDS011;17906;47.684;10.806;2023-03-14T02:51:08;0.30;;;0.07;;
16737;SDS011;17906;47.684;10.806;2023-03-14T02:53:36;0.10;;;0.00;;
16737;SDS011;17906;47.684;10.806;2023-03-14T02:56:04;0.40;;;0.10;;
16737;SDS011;17906;47.684;10.806;2023-03-14T02:58:31;1.27;;;0.10;;
16737;SDS011;17906;47.684;10.806;2023-03-14T03:00:57;0.60;;;0.13;;
16737;SDS011;17906;47.684;10.806;2023-03-14T03:03:25;0.43;;;0.17;;
16737;SDS011;17906;47.684;10.806;2023-03-14T03:05:53;0.20;;;0.10;;
16737;SDS011;17906;47.684;10.806;2023-03-14T03:08:21;0.20;;;0.10;;
16737;SDS011;17906;47.684;10.806;2023-03-14T03:10:49;0.20;;;0.00;;
16737;SDS011;17906;47.684;10.806;2023-03-14T03:13:16;1.37;;;0.13;;
16737;SDS011;17906;47.684;10.806;2023-03-14T03:15:43;0.43;;;0.10;;
16737;SDS011;17906;47.684;10.806;2023-03-14T03:18:10;0.57;;;0.10;;
16737;SDS011;17906;47.684;10.806;2023-03-14T03:20:38;0.00;;;0.00;;
16737;SDS011;17906;47.684;10.806;2023-03-14T03:23:05;1.43;;;0.13;;
16737;SDS011;17906;47.684;10.806;2023-03-14T03:25:31;1.40;;;0.10;;
16737;SDS011;17906;47.684;10.806;2023-03-14T03:27:58;0.20;;;0.10;;
16737;SDS011;17906;47.684;10.806;2023-03-14T03:30:26;0.33;;;0.10;;
16737;SDS011;17906;47.684;10.806;2023-03-14T03:32:52;0.17;;;0.03;;
16737;SDS011;17906;47.684;10.806;2023-03-14T03:35:19;0.07;;;0.07;;
16737;SDS011;17906;47.684;10.806;2023-03-14T03:37:47;0.20;;;0.10;;
16737;SDS011;17906;47.684;10.806;2023-03-14T03:40:13;0.20;;;0.17;;
16737;SDS011;17906;47.684;10.806;2023-03-14T03:42:40;0.77;;;0.13;;
16737;SDS011;17906;47.684;10.806;2023-03-14T03:45:07;1.30;;;0.10;;
16737;SDS011;17906;47.684;10.806;2023-03-14T03:47:34;0.03;;;0.03;;
16737;SDS011;17906;47.684;10.806;2023-03-14T03:50:01;0.00;;;0.00;;
16737;SDS011;17906;47.684;10.806;2023-03-14T03:52:28;0.40;;;0.20;;
16737;SDS011;17906;47.684;10.806;2023-03-14T03:54:55;0.60;;;0.40;;
16737;SDS011;17906;47.684;10.806;2023-03-14T03:57:22;1.90;;;0.40;;
16737;SDS011;17906;47.684;10.806;2023-03-14T03:59:48;0.40;;;0.10;;
16737;SDS011;17906;47.684;10.806;2023-03-14T04:02:15;1.73;;;0.10;;
16737;SDS011;17906;47.684;10.806;2023-03-14T04:04:42;0.00;;;0.00;;
16737;SDS011;17906;47.684;10.806;2023-03-14T04:07:08;4.63;;;0.10;;
16737;SDS011;17906;47.684;10.806;2023-03-14T04:09:35;0.10;;;0.00;;
16737;SDS011;17906;47.684;10.806;2023-03-14T04:12:05;0.33;;;0.10;;
16737;SDS011;17906;47.684;10.806;2023-03-14T04:14:32;0.97;;;0.20;;
16737;SDS011;17906;47.684;10.806;2023-03-14T04:16:58;0.10;;;0.10;;
16737;SDS011;17906;47.684;10.806;2023-03-14T04:19:25;0.10;;;0.00;;
16737;SDS011;17906;47.684;10.806;2023-03-14T04:21:51;0.00;;;0.00;;
16737;SDS011;17906;47.684;10.806;2023-03-14T04:24:18;0.40;;;0.20;;
16737;SDS011;17906;47.684;10.806;2023-03-14T04:26:44;0.00;;;0.00;;
16737;SDS011;17906;47.684;10.806;2023-03-14T04:29:12;0.43;;;0.10;;
16737;SDS011;17906;47.684;10.806;2023-03-14T04:31:38;1.67;;;0.23;;
16737;SDS011;17906;47.684;10.806;2023-03-14T04:34:05;2.73;;;1.10;;
16737;SDS011;17906;47.684;10.806;2023-03-14T04:36:32;2.20;;;0.80;;
16737;SDS011;17906;47.684;10.806;2023-03-14T04:38:58;0.30;;;0.20;;
16737;SDS011;17906;47.684;10.806;2023-03-14T04:41:25;0.63;;;0.13;;
16737;SDS011;17906;47.684;10.806;2023-03-14T04:43:51;0.20;;;0.20;;
16737;SDS011;17906;47.684;10.806;2023-03-14T04:46:19;1.50;;;0.10;;
16737;SDS011;17906;47.684;10.806;2023-03-14T04:48:46;2.30;;;0.17;;
16737;SDS011;17906;47.684;10.806;2023-03-14T04:51:12;0.37;;;0.20;;
16737;SDS011;17906;47.684;10.806;2023-03-14T04:53:39;0.10;;;0.10;;
16737;SDS011;17906;47.684;10.806;2023-03-14T04:56:06;0.73;;;0.20;;
16737;SDS011;17906;47.684;10.806;2023-03-14T04:58:33;1.30;;;0.10;;
16737;SDS011;17906;47.684;10.806;2023-03-14T05:01:01;0.20;;;0.00;;
16737;SDS011;17906;47.684;10.806;2023-03-14T05:03:30;0.10;;;0.00;;
16737;SDS011;17906;47.684;10.806;2023-03-14T05:05:56;0.10;;;0.10;;
16737;SDS011;17906;47.684;10.806;2023-03-14T05:08:23;0.70;;;0.37;;
16737;SDS011;17906;47.684;10.806;2023-03-14T05:10:51;0.67;;;0.30;;
16737;SDS011;17906;47.684;10.806;2023-03-14T05:13:18;1.90;;;0.30;;
16737;SDS011;17906;47.684;10.806;2023-03-14T05:15:45;0.30;;;0.20;;
16737;SDS011;17906;47.684;10.806;2023-03-14T05:18:12;0.47;;;0.10;;
16737;SDS011;17906;47.684;10.806;2023-03-14T05:20:39;0.27;;;0.10;;
16737;SDS011;17906;47.684;10.806;2023-03-14T05:23:08;0.30;;;0.00;;
16737;SDS011;17906;47.684;10.806;2023-03-14T05:25:34;0.90;;;0.30;;
16737;SDS011;17906;47.684;10.806;2023-03-14T05:28:01;0.30;;;0.20;;
16737;SDS011;17906;47.684;10.806;2023-03-14T05:30:27;0.70;;;0.30;;
16737;SDS011;17906;47.684;10.806;2023-03-14T05:32:56;3.93;;;1.30;;
16737;SDS011;17906;47.684;10.806;2023-03-14T05:35:22;1.83;;;0.80;;
16737;SDS011;17906;47.684;10.806;2023-03-14T05:37:50;0.50;;;0.27;;
16737;SDS011;17906;47.684;10.806;2023-03-14T05:40:17;0.30;;;0.30;;
16737;SDS011;17906;47.684;10.806;2023-03-14T05:42:43;0.50;;;0.40;;
16737;SDS011;17906;47.684;10.806;2023-03-14T05:45:10;0.40;;;0.37;;
16737;SDS011;17906;47.684;10.806;2023-03-14T05:47:37;2.50;;;0.17;;
16737;SDS011;17906;47.684;10.806;2023-03-14T05:50:04;1.73;;;0.60;;
16737;SDS011;17906;47.684;10.806;2023-03-14T05:52:31;0.30;;;0.20;;
16737;SDS011;17906;47.684;10.806;2023-03-14T05:54:59;0.20;;;0.20;;
16737;SDS011;17906;47.684;10.806;2023-03-14T05:57:25;7.00;;;4.03;;
16737;SDS011;17906;47.684;10.806;2023-03-14T05:59:52;1.00;;;0.70;;
16737;SDS011;17906;47.684;10.806;2023-03-14T06:02:18;4.10;;;1.60;;
16737;SDS011;17906;47.684;10.806;2023-03-14T06:04:45;1.70;;;0.60;;
16737;SDS011;17906;47.684;10.806;2023-03-14T06:07:11;1.40;;;0.40;;
16737;SDS011;17906;47.684;10.806;2023-03-14T06:09:38;2.97;;;0.30;;
16737;SDS011;17906;47.684;10.806;2023-03-14T06:12:06;1.23;;;0.37;;
16737;SDS011;17906;47.684;10.806;2023-03-14T06:14:33;1.37;;;0.60;;
16737;SDS011;17906;47.684;10.806;2023-03-14T06:17:00;1.10;;;0.50;;
16737;SDS011;17906;47.684;10.806;2023-03-14T06:19:26;0.73;;;0.40;;
16737;SDS011;17906;47.684;10.806;2023-03-14T06:21:53;3.33;;;0.60;;
16737;SDS011;17906;47.684;10.806;2023-03-14T06:24:20;5.27;;;2.07;;
16737;SDS011;17906;47.684;10.806;2023-03-14T06:26:46;6.40;;;1.57;;
16737;SDS011;17906;47.684;10.806;2023-03-14T06:29:14;4.60;;;2.00;;
16737;SDS011;17906;47.684;10.806;2023-03-14T06:31:41;10.97;;;3.50;;
16737;SDS011;17906;47.684;10.806;2023-03-14T06:34:07;10.17;;;3.50;;
16737;SDS011;17906;47.684;10.806;2023-03-14T06:36:34;13.33;;;3.57;;
16737;SDS011;17906;47.684;10.806;2023-03-14T06:39:00;13.13;;;3.70;;
16737;SDS011;17906;47.684;10.806;2023-03-14T06:41:27;3.27;;;1.37;;
16737;SDS011;17906;47.684;10.806;2023-03-14T06:43:53;0.40;;;0.30;;
16737;SDS011;17906;47.684;10.806;2023-03-14T06:46:21;1.70;;;0.30;;
16737;SDS011;17906;47.684;10.806;2023-03-14T06:48:49;0.30;;;0.20;;
16737;SDS011;17906;47.684;10.806;2023-03-14T06:51:15;4.30;;;1.50;;
16737;SDS011;17906;47.684;10.806;2023-03-14T06:53:42;8.13;;;2.60;;
16737;SDS011;17906;47.684;10.806;2023-03-14T06:56:09;16.50;;;4.13;;
16737;SDS011;17906;47.684;10.806;2023-03-14T06:58:36;15.67;;;4.37;;
16737;SDS011;17906;47.684;10.806;2023-03-14T07:01:02;14.03;;;3.50;;
16737;SDS011;17906;47.684;10.806;2023-03-14T07:03:30;12.63;;;3.47;;
16737;SDS011;17906;47.684;10.806;2023-03-14T07:05:57;13.27;;;3.90;;
16737;SDS011;17906;47.684;10.806;2023-03-14T07:08:25;21.13;;;4.53;;
16737;SDS011;17906;47.684;10.806;2023-03-14T07:10:51;9.00;;;3.07;;
16737;SDS011;17906;47.684;10.806;2023-03-14T07:13:18;28.50;;;6.10;;
16737;SDS011;17906;47.684;10.806;2023-03-14T07:15:44;17.13;;;4.33;;
16737;SDS011;17906;47.684;10.806;2023-03-14T07:18:11;20.67;;;5.23;;
16737;SDS011;17906;47.684;10.806;2023-03-14T07:20:39;16.80;;;4.53;;
16737;SDS011;17906;47.684;10.806;2023-03-14T07:23:05;10.50;;;2.50;;
16737;SDS011;17906;47.684;10.806;2023-03-14T07:25:32;7.53;;;2.50;;
16737;SDS011;17906;47.684;10.806;2023-03-14T07:27:58;2.90;;;1.00;;
16737;SDS011;17906;47.684;10.806;2023-03-14T07:30:25;3.10;;;1.30;;
16737;SDS011;17906;47.684;10.806;2023-03-14T07:32:52;1.50;;;0.70;;
16737;SDS011;17906;47.684;10.806;2023-03-14T07:35:18;0.97;;;0.50;;
16737;SDS011;17906;47.684;10.806;2023-03-14T07:37:46;2.20;;;0.70;;
16737;SDS011;17906;47.684;10.806;2023-03-14T07:40:12;3.27;;;1.30;;
16737;SDS011;17906;47.684;10.806;2023-03-14T07:42:40;12.23;;;4.23;;
16737;SDS011;17906;47.684;10.806;2023-03-14T07:45:07;12.33;;;4.23;;
16737;SDS011;17906;47.684;10.806;2023-03-14T07:47:35;9.30;;;4.97;;
16737;SDS011;17906;47.684;10.806;2023-03-14T07:50:01;4.60;;;2.53;;
16737;SDS011;17906;47.684;10.806;2023-03-14T07:52:28;4.90;;;1.90;;
16737;SDS011;17906;47.684;10.806;2023-03-14T07:54:56;3.40;;;1.77;;
16737;SDS011;17906;47.684;10.806;2023-03-14T07:57:23;4.60;;;1.90;;
16737;SDS011;17906;47.684;10.806;2023-03-14T07:59:49;1.93;;;0.77;;
16737;SDS011;17906;47.684;10.806;2023-03-14T08:02:16;1.20;;;0.60;;
16737;SDS011;17906;47.684;10.806;2023-03-14T08:04:45;0.90;;;0.50;;
16737;SDS011;17906;47.684;10.806;2023-03-14T08:07:12;0.77;;;0.40;;
16737;SDS011;17906;47.684;10.806;2023-03-14T08:09:38;0.77;;;0.40;;
16737;SDS011;17906;47.684;10.806;2023-03-14T08:12:06;5.57;;;3.20;;
16737;SDS011;17906;47.684;10.806;2023-03-14T08:14:34;2.07;;;1.00;;
16737;SDS011;17906;47.684;10.806;2023-03-14T08:17:00;3.03;;;1.20;;
16737;SDS011;17906;47.684;10.806;2023-03-14T08:19:27;3.20;;;1.53;;
16737;SDS011;17906;47.684;10.806;2023-03-14T08:21:53;1.57;;;0.97;;
16737;SDS011;17906;47.684;10.806;2023-03-14T08:24:20;0.87;;;0.50;;
16737;SDS011;17906;47.684;10.806;2023-03-14T08:26:46;1.90;;;0.47;;
16737;SDS011;17906;47.684;10.806;2023-03-14T08:29:14;4.10;;;0.40;;
16737;SDS011;17906;47.684;10.806;2023-03-14T08:31:41;4.47;;;0.77;;
16737;SDS011;17906;47.684;10.806;2023-03-14T08:34:07;2.77;;;1.30;;
16737;SDS011;17906;47.684;10.806;2023-03-14T08:36:34;5.83;;;1.80;;
16737;SDS011;17906;47.684;10.806;2023-03-14T08:39:01;3.93;;;1.20;;
16737;SDS011;17906;47.684;10.806;2023-03-14T08:41:28;1.97;;;0.77;;
16737;SDS011;17906;47.684;10.806;2023-03-14T08:43:55;9.60;;;1.70;;
16737;SDS011;17906;47.684;10.806;2023-03-14T08:46:23;7.63;;;2.73;;
16737;SDS011;17906;47.684;10.806;2023-03-14T08:48:49;7.60;;;2.17;;
16737;SDS011;17906;47.684;10.806;2023-03-14T08:51:16;3.57;;;1.43;;
16737;SDS011;17906;47.684;10.806;2023-03-14T08:53:43;0.90;;;0.60;;
16737;SDS011;17906;47.684;10.806;2023-03-14T08:56:10;0.57;;;0.20;;
16737;SDS011;17906;47.684;10.806;2023-03-14T08:58:36;0.67;;;0.40;;
16737;SDS011;17906;47.684;10.806;2023-03-14T09:01:04;1.87;;;0.40;;
16737;SDS011;17906;47.684;10.806;2023-03-14T09:03:32;0.90;;;0.40;;
16737;SDS011;17906;47.684;10.806;2023-03-14T09:06:01;4.17;;;1.27;;
16737;SDS011;17906;47.684;10.806;2023-03-14T09:08:29;4.93;;;2.40;;
16737;SDS011;17906;47.684;10.806;2023-03-14T09:10:56;0.73;;;0.57;;
16737;SDS011;17906;47.684;10.806;2023-03-14T09:13:22;1.47;;;0.90;;
16737;SDS011;17906;47.684;10.806;2023-03-14T09:15:50;0.40;;;0.30;;
16737;SDS011;17906;47.684;10.806;2023-03-14T09:18:17;0.40;;;0.30;;
16737;SDS011;17906;47.684;10.806;2023-03-14T09:20:45;0.70;;;0.50;;
16737;SDS011;17906;47.684;10.806;2023-03-14T09:23:12;0.20;;;0.20;;
16737;SDS011;17906;47.684;10.806;2023-03-14T09:25:38;0.90;;;0.60;;
16737;SDS011;17906;47.684;10.806;2023-03-14T09:28:05;0.67;;;0.40;;
16737;SDS011;17906;47.684;10.806;2023-03-14T09:30:31;3.27;;;1.70;;
16737;SDS011;17906;47.684;10.806;2023-03-14T09:32:58;1.97;;;1.10;;
16737;SDS011;17906;47.684;10.806;2023-03-14T09:35:25;5.37;;;3.07;;
16737;SDS011;17906;47.684;10.806;2023-03-14T09:37:53;4.13;;;1.90;;
16737;SDS011;17906;47.684;10.806;2023-03-14T09:40:20;2.20;;;1.10;;
16737;SDS011;17906;47.684;10.806;2023-03-14T09:42:50;1.43;;;0.83;;
16737;SDS011;17906;47.684;10.806;2023-03-14T09:45:19;3.43;;;2.17;;
16737;SDS011;17906;47.684;10.806;2023-03-14T09:47:51;6.60;;;3.13;;
16737;SDS011;17906;47.684;10.806;2023-03-14T09:50:19;5.00;;;2.60;;
16737;SDS011;17906;47.684;10.806;2023-03-14T09:52:47;3.13;;;1.97;;
16737;SDS011;17906;47.684;10.806;2023-03-14T09:55:19;1.33;;;0.80;;
16737;SDS011;17906;47.684;10.806;2023-03-14T09:57:47;6.43;;;2.87;;
16737;SDS011;17906;47.684;10.806;2023-03-14T10:00:16;0.47;;;0.30;;
16737;SDS011;17906;47.684;10.806;2023-03-14T10:02:46;1.90;;;1.00;;
16737;SDS011;17906;47.684;10.806;2023-03-14T10:05:17;0.83;;;0.33;;
16737;SDS011;17906;47.684;10.806;2023-03-14T10:07:45;1.07;;;0.53;;
16737;SDS011;17906;47.684;10.806;2023-03-14T10:10:13;1.13;;;0.70;;
16737;SDS011;17906;47.684;10.806;2023-03-14T10:12:45;1.80;;;0.67;;
16737;SDS011;17906;47.684;10.806;2023-03-14T10:15:13;0.90;;;0.50;;
16737;SDS011;17906;47.684;10.806;2023-03-14T10:17:49;0.83;;;0.60;;
16737;SDS011;17906;47.684;10.806;2023-03-14T10:20:27;0.77;;;0.50;;
16737;SDS011;17906;47.684;10.806;2023-03-14T10:22:58;0.40;;;0.30;;
16737;SDS011;17906;47.684;10.806;2023-03-14T10:25:26;0.47;;;0.30;;
16737;SDS011;17906;47.684;10.806;2023-03-14T10:27:55;0.90;;;0.30;;
16737;SDS011;17906;47.684;10.806;2023-03-14T10:30:38;0.50;;;0.27;;
16737;SDS011;17906;47.684;10.806;2023-03-14T10:33:09;0.20;;;0.20;;
16737;SDS011;17906;47.684;10.806;2023-03-14T10:35:37;0.50;;;0.40;;
16737;SDS011;17906;47.684;10.806;2023-03-14T10:38:04;2.33;;;0.30;;
16737;SDS011;17906;47.684;10.806;2023-03-14T10:40:31;0.20;;;0.10;;
16737;SDS011;17906;47.684;10.806;2023-03-14T10:43:00;0.10;;;0.10;;
16737;SDS011;17906;47.684;10.806;2023-03-14T10:45:31;0.10;;;0.10;;
16737;SDS011;17906;47.684;10.806;2023-03-14T10:48:06;1.47;;;0.30;;
16737;SDS011;17906;47.684;10.806;2023-03-14T10:50:47;0.17;;;0.10;;
16737;SDS011;17906;47.684;10.806;2023-03-14T10:53:16;0.50;;;0.20;;
16737;SDS011;17906;47.684;10.806;2023-03-14T10:55:44;0.37;;;0.20;;
16737;SDS011;17906;47.684;10.806;2023-03-14T10:58:22;0.30;;;0.10;;
16737;SDS011;17906;47.684;10.806;2023-03-14T11:00:57;0.60;;;0.30;;
16737;SDS011;17906;47.684;10.806;2023-03-14T11:03:30;0.20;;;0.13;;
16737;SDS011;17906;47.684;10.806;2023-03-14T11:06:01;1.37;;;0.10;;
16737;SDS011;17906;47.684;10.806;2023-03-14T11:08:34;0.00;;;0.00;;
16737;SDS011;17906;47.684;10.806;2023-03-14T11:11:11;3.20;;;0.20;;
16737;SDS011;17906;47.684;10.806;2023-03-14T11:13:46;0.30;;;0.10;;
16737;SDS011;17906;47.684;10.806;2023-03-14T11:16:22;0.10;;;0.10;;
16737;SDS011;17906;47.684;10.806;2023-03-14T11:19:03;2.23;;;0.17;;
16737;SDS011;17906;47.684;10.806;2023-03-14T11:21:43;0.83;;;0.00;;
16737;SDS011;17906;47.684;10.806;2023-03-14T11:24:22;0.13;;;0.10;;
16737;SDS011;17906;47.684;10.806;2023-03-14T11:26:59;1.60;;;0.10;;
16737;SDS011;17906;47.684;10.806;2023-03-14T11:29:33;0.20;;;0.17;;
16737;SDS011;17906;47.684;10.806;2023-03-14T11:32:09;1.90;;;0.20;;
16737;SDS011;17906;47.684;10.806;2023-03-14T11:34:40;0.30;;;0.10;;
16737;SDS011;17906;47.684;10.806;2023-03-14T11:37:16;0.20;;;0.10;;
16737;SDS011;17906;47.684;10.806;2023-03-14T11:39:51;0.30;;;0.17;;
16737;SDS011;17906;47.684;10.806;2023-03-14T11:42:22;0.33;;;0.10;;
16737;SDS011;17906;47.684;10.806;2023-03-14T11:44:52;0.10;;;0.10;;
16737;SDS011;17906;47.684;10.806;2023-03-14T11:47:22;0.53;;;0.10;;
16737;SDS011;17906;47.684;10.806;2023-03-14T11:49:53;0.17;;;0.10;;
16737;SDS011;17906;47.684;10.806;2023-03-14T11:52:25;0.07;;;0.07;;
16737;SDS011;17906;47.684;10.806;2023-03-14T11:54:57;0.23;;;0.10;;
16737;SDS011;17906;47.684;10.806;2023-03-14T11:57:26;0.20;;;0.10;;
16737;SDS011;17906;47.684;10.806;2023-03-14T11:59:56;0.50;;;0.17;;
16737;SDS011;17906;47.684;10.806;2023-03-14T12:02:32;0.27;;;0.10;;
16737;SDS011;17906;47.684;10.806;2023-03-14T12:05:18;0.20;;;0.10;;
16737;SDS011;17906;47.684;10.806;2023-03-14T12:08:02;0.40;;;0.30;;
16737;SDS011;17906;47.684;10.806;2023-03-14T12:10:46;1.57;;;0.20;;
16737;SDS011;17906;47.684;10.806;2023-03-14T12:13:17;0.93;;;0.40;;
16737;SDS011;17906;47.684;10.806;2023-03-14T12:15:48;0.23;;;0.20;;
16737;SDS011;17906;47.684;10.806;2023-03-14T12:18:20;0.57;;;0.20;;
16737;SDS011;17906;47.684;10.806;2023-03-14T12:20:53;0.10;;;0.10;;
16737;SDS011;17906;47.684;10.806;2023-03-14T12:23:22;0.20;;;0.20;;
16737;SDS011;17906;47.684;10.806;2023-03-14T12:26:05;0.20;;;0.20;;
16737;SDS011;17906;47.684;10.806;2023-03-14T12:28:34;0.40;;;0.10;;
16737;SDS011;17906;47.684;10.806;2023-03-14T12:34:02;0.10;;;0.10;;
16737;SDS011;17906;47.684;10.806;2023-03-14T12:39:21;0.30;;;0.20;;
16737;SDS011;17906;47.684;10.806;2023-03-14T12:42:01;0.10;;;0.10;;
16737;SDS011;17906;47.684;10.806;2023-03-14T12:44:38;0.10;;;0.10;;
16737;SDS011;17906;47.684;10.806;2023-03-14T12:50:26;0.20;;;0.20;;
16737;SDS011;17906;47.684;10.806;2023-03-14T12:53:02;0.20;;;0.13;;
16737;SDS011;17906;47.684;10.806;2023-03-14T12:55:53;0.50;;;0.40;;
16737;SDS011;17906;47.684;10.806;2023-03-14T12:58:25;0.27;;;0.20;;
16737;SDS011;17906;47.684;10.806;2023-03-14T13:00:59;0.10;;;0.10;;
16737;SDS011;17906;47.684;10.806;2023-03-14T13:03:36;1.37;;;0.10;;
16737;SDS011;17906;47.684;10.806;2023-03-14T13:06:09;0.17;;;0.10;;
16737;SDS011;17906;47.684;10.806;2023-03-14T13:08:38;0.23;;;0.20;;
16737;SDS011;17906;47.684;10.806;2023-03-14T13:11:07;0.30;;;0.10;;
16737;SDS011;17906;47.684;10.806;2023-03-14T13:13:37;0.17;;;0.10;;
16737;SDS011;17906;47.684;10.806;2023-03-14T13:16:12;3.30;;;1.30;;
16737;SDS011;17906;47.684;10.806;2023-03-14T13:18:43;2.67;;;1.00;;
16737;SDS011;17906;47.684;10.806;2023-03-14T13:21:13;0.90;;;0.77;;
16737;SDS011;17906;47.684;10.806;2023-03-14T13:23:54;0.80;;;0.40;;
16737;SDS011;17906;47.684;10.806;2023-03-14T13:26:24;0.50;;;0.30;;
16737;SDS011;17906;47.684;10.806;2023-03-14T13:28:57;0.50;;;0.40;;
16737;SDS011;17906;47.684;10.806;2023-03-14T13:31:25;0.30;;;0.20;;
16737;SDS011;17906;47.684;10.806;2023-03-14T13:33:57;0.40;;;0.20;;
16737;SDS011;17906;47.684;10.806;2023-03-14T13:36:26;0.20;;;0.10;;
16737;SDS011;17906;47.684;10.806;2023-03-14T13:38:57;0.30;;;0.30;;
16737;SDS011;17906;47.684;10.806;2023-03-14T13:41:24;0.10;;;0.10;;
16737;SDS011;17906;47.684;10.806;2023-03-14T13:43:52;0.00;;;0.00;;
16737;SDS011;17906;47.684;10.806;2023-03-14T13:46:27;0.33;;;0.20;;
16737;SDS011;17906;47.684;10.806;2023-03-14T13:48:54;0.27;;;0.13;;
16737;SDS011;17906;47.684;10.806;2023-03-14T13:51:22;0.57;;;0.10;;
16737;SDS011;17906;47.684;10.806;2023-03-14T13:53:52;0.00;;;0.00;;
16737;SDS011;17906;47.684;10.806;2023-03-14T13:56:21;0.40;;;0.20;;
16737;SDS011;17906;47.684;10.806;2023-03-14T13:58:49;0.00;;;0.00;;
16737;SDS011;17906;47.684;10.806;2023-03-14T14:01:17;0.30;;;0.20;;
16737;SDS011;17906;47.684;10.806;2023-03-14T14:03:46;2.10;;;0.10;;
16737;SDS011;17906;47.684;10.806;2023-03-14T14:06:27;0.07;;;0.00;;
16737;SDS011;17906;47.684;10.806;2023-03-14T14:08:58;0.40;;;0.10;;
16737;SDS011;17906;47.684;10.806;2023-03-14T14:11:31;0.00;;;0.00;;
16737;SDS011;17906;47.684;10.806;2023-03-14T14:14:04;0.00;;;0.00;;
16737;SDS011;17906;47.684;10.806;2023-03-14T14:16:36;0.10;;;0.00;;
16737;SDS011;17906;47.684;10.806;2023-03-14T14:19:02;0.00;;;0.00;;
16737;SDS011;17906;47.684;10.806;2023-03-14T14:21:29;0.07;;;0.00;;
16737;SDS011;17906;47.684;10.806;2023-03-14T14:23:59;0.37;;;0.20;;
16737;SDS011;17906;47.684;10.806;2023-03-14T14:26:26;1.77;;;0.90;;
16737;SDS011;17906;47.684;10.806;2023-03-14T14:29:00;1.30;;;0.50;;
16737;SDS011;17906;47.684;10.806;2023-03-14T14:31:28;0.10;;;0.00;;
16737;SDS011;17906;47.684;10.806;2023-03-14T14:33:56;0.20;;;0.20;;
16737;SDS011;17906;47.684;10.806;2023-03-14T14:36:24;0.03;;;0.03;;
16737;SDS011;17906;47.684;10.806;2023-03-14T14:38:54;0.20;;;0.10;;
16737;SDS011;17906;47.684;10.806;2023-03-14T14:41:27;0.20;;;0.20;;
16737;SDS011;17906;47.684;10.806;2023-03-14T14:43:56;1.50;;;0.10;;
16737;SDS011;17906;47.684;10.806;2023-03-14T14:46:23;0.30;;;0.20;;
16737;SDS011;17906;47.684;10.806;2023-03-14T14:48:55;0.10;;;0.10;;
16737;SDS011;17906;47.684;10.806;2023-03-14T14:51:24;0.73;;;0.60;;